sensor_id;sensor_type;location;lat;lon;timestamp;P1;durP1;ratioP1;P2;durP2;ratioP2
19645;SDS011;9971;52.446;13.452;2024-03-07T00:19:35;21.93;;;16.60;;
19645;SDS011;9971;52.446;13.452;2024-03-07T00:46:00;25.33;;;17.97;;
19645;SDS011;9971;52.446;13.452;2024-03-07T00:51:13;26.90;;;18.70;;
19645;SDS011;9971;52.446;13.452;2024-03-07T00:56:27;28.07;;;17.30;;
19645;SDS011;9971;52.446;13.452;2024-03-07T01:01:37;29.77;;;18.53;;
19645;SDS011;9971;52.446;13.452;2024-03-07T01:06:51;29.63;;;19.30;;
19645;SDS011;9971;52.446;13.452;2024-03-07T01:12:04;25.47;;;17.87;;
19645;SDS011;9971;52.446;13.452;2024-03-07T01:17:12;25.53;;;17.67;;
19645;SDS011;9971;52.446;13.452;2024-03-07T01:22:16;26.68;;;18.12;;
19645;SDS011;9971;52.446;13.452;2024-03-07T01:27:34;23.97;;;15.27;;
19645;SDS011;9971;52.446;13.452;2024-03-07T01:32:46;18.17;;;11.47;;
19645;SDS011;9971;52.446;13.452;2024-03-07T01:37:57;17.43;;;12.20;;
19645;SDS011;9971;52.446;13.452;2024-03-07T02:10:05;17.97;;;12.13;;
19645;SDS011;9971;52.446;13.452;2024-03-07T02:15:14;15.57;;;12.00;;
19645;SDS011;9971;52.446;13.452;2024-03-07T02:20:16;16.23;;;11.65;;
19645;SDS011;9971;52.446;13.452;2024-03-07T02:25:21;15.17;;;12.80;;
19645;SDS011;9971;52.446;13.452;2024-03-07T02:52:07;21.27;;;15.10;;
19645;SDS011;9971;52.446;13.452;2024-03-07T02:57:30;22.23;;;14.67;;
19645;SDS011;9971;52.446;13.452;2024-03-07T03:18:50;19.57;;;12.95;;
19645;SDS011;9971;52.446;13.452;2024-03-07T03:24:18;19.73;;;13.47;;
19645;SDS011;9971;52.446;13.452;2024-03-07T03:29:28;17.93;;;13.83;;
19645;SDS011;9971;52.446;13.452;2024-03-07T03:34:36;18.55;;;13.28;;
19645;SDS011;9971;52.446;13.452;2024-03-07T03:39:43;16.60;;;13.00;;
19645;SDS011;9971;52.446;13.452;2024-03-07T03:44:50;18.60;;;13.58;;
19645;SDS011;9971;52.446;13.452;2024-03-07T03:49:53;15.72;;;12.88;;
19645;SDS011;9971;52.446;13.452;2024-03-07T03:55:02;14.30;;;12.17;;
19645;SDS011;9971;52.446;13.452;2024-03-07T04:00:09;18.80;;;14.27;;
19645;SDS011;9971;52.446;13.452;2024-03-07T04:05:15;17.75;;;13.08;;
19645;SDS011;9971;52.446;13.452;2024-03-07T04:31:50;14.37;;;12.83;;
19645;SDS011;9971;52.446;13.452;2024-03-07T04:36:56;13.57;;;10.93;;
19645;SDS011;9971;52.446;13.452;2024-03-07T04:42:03;13.97;;;12.20;;
19645;SDS011;9971;52.446;13.452;2024-03-07T05:03:16;1.50;;;1.40;;
19645;SDS011;9971;52.446;13.452;2024-03-07T05:08:30;1.27;;;1.17;;
19645;SDS011;9971;52.446;13.452;2024-03-07T05:13:38;6.67;;;5.97;;
19645;SDS011;9971;52.446;13.452;2024-03-07T05:18:39;11.48;;;9.40;;
19645;SDS011;9971;52.446;13.452;2024-03-07T05:29:14;7.83;;;7.10;;
19645;SDS011;9971;52.446;13.452;2024-03-07T05:34:36;6.47;;;5.87;;
19645;SDS011;9971;52.446;13.452;2024-03-07T05:39:49;5.73;;;5.23;;
19645;SDS011;9971;52.446;13.452;2024-03-07T05:44:53;5.15;;;4.75;;
19645;SDS011;9971;52.446;13.452;2024-03-07T05:50:01;3.70;;;3.40;;
19645;SDS011;9971;52.446;13.452;2024-03-07T05:55:04;6.03;;;5.53;;
19645;SDS011;9971;52.446;13.452;2024-03-07T06:00:06;5.17;;;4.67;;
19645;SDS011;9971;52.446;13.452;2024-03-07T06:05:14;5.30;;;4.87;;
19645;SDS011;9971;52.446;13.452;2024-03-07T06:10:17;4.40;;;4.00;;
19645;SDS011;9971;52.446;13.452;2024-03-07T06:15:24;3.08;;;2.77;;
19645;SDS011;9971;52.446;13.452;2024-03-07T06:20:30;4.33;;;3.93;;
19645;SDS011;9971;52.446;13.452;2024-03-07T06:25:43;1.98;;;1.87;;
19645;SDS011;9971;52.446;13.452;2024-03-07T06:46:58;4.13;;;3.73;;
19645;SDS011;9971;52.446;13.452;2024-03-07T07:19:00;3.97;;;3.60;;
19645;SDS011;9971;52.446;13.452;2024-03-07T07:24:03;3.10;;;2.87;;
19645;SDS011;9971;52.446;13.452;2024-03-07T07:29:20;3.90;;;3.60;;
19645;SDS011;9971;52.446;13.452;2024-03-07T07:34:26;2.55;;;2.35;;
19645;SDS011;9971;52.446;13.452;2024-03-07T07:44:47;3.45;;;3.15;;
19645;SDS011;9971;52.446;13.452;2024-03-07T07:49:51;3.77;;;3.47;;
19645;SDS011;9971;52.446;13.452;2024-03-07T07:55:01;0.98;;;0.98;;
19645;SDS011;9971;52.446;13.452;2024-03-07T08:00:19;0.90;;;0.90;;
19645;SDS011;9971;52.446;13.452;2024-03-07T08:05:25;3.57;;;3.23;;
19645;SDS011;9971;52.446;13.452;2024-03-07T08:10:27;1.13;;;1.13;;
19645;SDS011;9971;52.446;13.452;2024-03-07T08:15:30;1.20;;;1.10;;
19645;SDS011;9971;52.446;13.452;2024-03-07T08:20:38;1.50;;;1.40;;
19645;SDS011;9971;52.446;13.452;2024-03-07T08:25:47;0.95;;;0.95;;
19645;SDS011;9971;52.446;13.452;2024-03-07T08:30:54;1.90;;;1.53;;
19645;SDS011;9971;52.446;13.452;2024-03-07T08:36:04;1.03;;;1.03;;
19645;SDS011;9971;52.446;13.452;2024-03-07T08:41:11;0.75;;;0.75;;
19645;SDS011;9971;52.446;13.452;2024-03-07T08:46:37;2.37;;;2.17;;
19645;SDS011;9971;52.446;13.452;2024-03-07T08:51:42;2.60;;;2.40;;
19645;SDS011;9971;52.446;13.452;2024-03-07T08:56:48;2.77;;;2.57;;
19645;SDS011;9971;52.446;13.452;2024-03-07T09:01:53;1.00;;;0.97;;
19645;SDS011;9971;52.446;13.452;2024-03-07T09:06:59;3.73;;;3.43;;
19645;SDS011;9971;52.446;13.452;2024-03-07T09:44:54;0.70;;;0.70;;
19645;SDS011;9971;52.446;13.452;2024-03-07T09:49:58;0.85;;;0.85;;
19645;SDS011;9971;52.446;13.452;2024-03-07T09:55:15;0.93;;;0.93;;
19645;SDS011;9971;52.446;13.452;2024-03-07T10:00:29;0.70;;;0.70;;
19645;SDS011;9971;52.446;13.452;2024-03-07T10:05:31;1.00;;;1.00;;
19645;SDS011;9971;52.446;13.452;2024-03-07T10:10:49;1.07;;;1.07;;
19645;SDS011;9971;52.446;13.452;2024-03-07T10:16:11;0.80;;;0.80;;
19645;SDS011;9971;52.446;13.452;2024-03-07T10:21:22;1.05;;;1.05;;
19645;SDS011;9971;52.446;13.452;2024-03-07T10:26:32;1.00;;;1.00;;
19645;SDS011;9971;52.446;13.452;2024-03-07T10:31:41;0.80;;;0.80;;
19645;SDS011;9971;52.446;13.452;2024-03-07T10:36:55;1.20;;;1.12;;
19645;SDS011;9971;52.446;13.452;2024-03-07T10:42:14;0.60;;;0.60;;
19645;SDS011;9971;52.446;13.452;2024-03-07T10:47:19;0.77;;;0.77;;
19645;SDS011;9971;52.446;13.452;2024-03-07T10:52:26;0.70;;;0.70;;
19645;SDS011;9971;52.446;13.452;2024-03-07T10:57:45;0.70;;;0.70;;
19645;SDS011;9971;52.446;13.452;2024-03-07T11:19:17;0.60;;;0.60;;
19645;SDS011;9971;52.446;13.452;2024-03-07T11:24:25;0.95;;;0.95;;
19645;SDS011;9971;52.446;13.452;2024-03-07T11:29:40;0.70;;;0.70;;
19645;SDS011;9971;52.446;13.452;2024-03-07T11:34:50;0.90;;;0.90;;
19645;SDS011;9971;52.446;13.452;2024-03-07T11:39:58;0.62;;;0.62;;
19645;SDS011;9971;52.446;13.452;2024-03-07T11:45:04;0.62;;;0.62;;
19645;SDS011;9971;52.446;13.452;2024-03-07T11:50:24;0.47;;;0.47;;
19645;SDS011;9971;52.446;13.452;2024-03-07T11:55:27;0.53;;;0.53;;
19645;SDS011;9971;52.446;13.452;2024-03-07T12:00:33;0.70;;;0.70;;
19645;SDS011;9971;52.446;13.452;2024-03-07T12:05:42;0.67;;;0.67;;
19645;SDS011;9971;52.446;13.452;2024-03-07T12:10:46;0.73;;;0.73;;
19645;SDS011;9971;52.446;13.452;2024-03-07T12:21:23;1.37;;;1.27;;
19645;SDS011;9971;52.446;13.452;2024-03-07T12:26:35;0.70;;;0.70;;
19645;SDS011;9971;52.446;13.452;2024-03-07T12:31:46;3.33;;;3.10;;
19645;SDS011;9971;52.446;13.452;2024-03-07T12:36:49;0.90;;;0.90;;
19645;SDS011;9971;52.446;13.452;2024-03-07T12:41:56;0.50;;;0.50;;
19645;SDS011;9971;52.446;13.452;2024-03-07T12:47:00;1.20;;;1.10;;
19645;SDS011;9971;52.446;13.452;2024-03-07T12:52:07;0.60;;;0.60;;
19645;SDS011;9971;52.446;13.452;2024-03-07T12:57:10;0.68;;;0.68;;
19645;SDS011;9971;52.446;13.452;2024-03-07T13:02:17;0.70;;;0.70;;
19645;SDS011;9971;52.446;13.452;2024-03-07T13:13:05;0.67;;;0.67;;
19645;SDS011;9971;52.446;13.452;2024-03-07T13:18:11;0.70;;;0.70;;
19645;SDS011;9971;52.446;13.452;2024-03-07T13:23:17;0.97;;;0.90;;
19645;SDS011;9971;52.446;13.452;2024-03-07T13:28:33;0.60;;;0.60;;
19645;SDS011;9971;52.446;13.452;2024-03-07T13:33:42;1.10;;;1.10;;
19645;SDS011;9971;52.446;13.452;2024-03-07T13:38:51;0.80;;;0.80;;
19645;SDS011;9971;52.446;13.452;2024-03-07T13:43:53;0.90;;;0.90;;
19645;SDS011;9971;52.446;13.452;2024-03-07T13:49:03;0.95;;;0.95;;
19645;SDS011;9971;52.446;13.452;2024-03-07T13:54:13;0.60;;;0.60;;
19645;SDS011;9971;52.446;13.452;2024-03-07T13:59:37;0.80;;;0.80;;
19645;SDS011;9971;52.446;13.452;2024-03-07T14:16:02;0.63;;;0.63;;
19645;SDS011;9971;52.446;13.452;2024-03-07T14:21:19;0.93;;;0.93;;
19645;SDS011;9971;52.446;13.452;2024-03-07T14:32:00;0.60;;;0.60;;
19645;SDS011;9971;52.446;13.452;2024-03-07T14:37:17;0.80;;;0.70;;
19645;SDS011;9971;52.446;13.452;2024-03-07T14:42:29;0.57;;;0.57;;
19645;SDS011;9971;52.446;13.452;2024-03-07T14:47:33;0.70;;;0.70;;
19645;SDS011;9971;52.446;13.452;2024-03-07T14:52:36;0.60;;;0.60;;
19645;SDS011;9971;52.446;13.452;2024-03-07T14:57:49;0.90;;;0.90;;
19645;SDS011;9971;52.446;13.452;2024-03-07T15:02:55;0.67;;;0.67;;
19645;SDS011;9971;52.446;13.452;2024-03-07T15:08:01;0.63;;;0.63;;
19645;SDS011;9971;52.446;13.452;2024-03-07T15:13:08;0.60;;;0.60;;
19645;SDS011;9971;52.446;13.452;2024-03-07T15:18:21;0.70;;;0.70;;
19645;SDS011;9971;52.446;13.452;2024-03-07T15:23:26;0.60;;;0.60;;
19645;SDS011;9971;52.446;13.452;2024-03-07T15:28:28;0.60;;;0.60;;
19645;SDS011;9971;52.446;13.452;2024-03-07T15:33:32;0.88;;;0.80;;
19645;SDS011;9971;52.446;13.452;2024-03-07T15:38:37;0.75;;;0.75;;
19645;SDS011;9971;52.446;13.452;2024-03-07T15:43:42;0.60;;;0.60;;
19645;SDS011;9971;52.446;13.452;2024-03-07T15:48:50;0.53;;;0.53;;
19645;SDS011;9971;52.446;13.452;2024-03-07T15:53:56;0.70;;;0.70;;
19645;SDS011;9971;52.446;13.452;2024-03-07T15:59:03;0.70;;;0.70;;
19645;SDS011;9971;52.446;13.452;2024-03-07T16:04:11;9.50;;;8.60;;
19645;SDS011;9971;52.446;13.452;2024-03-07T16:09:18;10.03;;;9.00;;
19645;SDS011;9971;52.446;13.452;2024-03-07T16:14:27;9.20;;;8.30;;
19645;SDS011;9971;52.446;13.452;2024-03-07T16:19:40;9.50;;;8.60;;
19645;SDS011;9971;52.446;13.452;2024-03-07T16:24:48;9.50;;;8.60;;
19645;SDS011;9971;52.446;13.452;2024-03-07T16:29:58;11.17;;;9.37;;
19645;SDS011;9971;52.446;13.452;2024-03-07T16:35:16;11.20;;;10.10;;
19645;SDS011;9971;52.446;13.452;2024-03-07T16:40:39;7.30;;;6.23;;
19645;SDS011;9971;52.446;13.452;2024-03-07T16:45:44;1.57;;;1.47;;
19645;SDS011;9971;52.446;13.452;2024-03-07T16:50:50;0.57;;;0.57;;
19645;SDS011;9971;52.446;13.452;2024-03-07T16:55:53;0.35;;;0.35;;
19645;SDS011;9971;52.446;13.452;2024-03-07T17:01:01;0.50;;;0.50;;
19645;SDS011;9971;52.446;13.452;2024-03-07T17:06:17;0.30;;;0.30;;
19645;SDS011;9971;52.446;13.452;2024-03-07T17:27:43;0.93;;;0.90;;
19645;SDS011;9971;52.446;13.452;2024-03-07T17:32:50;2.87;;;2.52;;
19645;SDS011;9971;52.446;13.452;2024-03-07T17:38:05;5.37;;;4.87;;
19645;SDS011;9971;52.446;13.452;2024-03-07T17:43:09;5.97;;;5.42;;
19645;SDS011;9971;52.446;13.452;2024-03-07T18:15:02;0.50;;;0.50;;
19645;SDS011;9971;52.446;13.452;2024-03-07T18:20:12;3.77;;;3.00;;
19645;SDS011;9971;52.446;13.452;2024-03-07T18:25:20;5.03;;;4.53;;
19645;SDS011;9971;52.446;13.452;2024-03-07T18:30:26;6.17;;;5.33;;
19645;SDS011;9971;52.446;13.452;2024-03-07T18:35:31;7.17;;;6.47;;
19645;SDS011;9971;52.446;13.452;2024-03-07T18:40:34;7.20;;;6.50;;
19645;SDS011;9971;52.446;13.452;2024-03-07T18:45:42;7.10;;;6.40;;
19645;SDS011;9971;52.446;13.452;2024-03-07T18:50:49;7.03;;;6.33;;
19645;SDS011;9971;52.446;13.452;2024-03-07T18:56:00;8.27;;;7.40;;
19645;SDS011;9971;52.446;13.452;2024-03-07T19:01:11;7.90;;;7.13;;
19645;SDS011;9971;52.446;13.452;2024-03-07T19:06:16;7.70;;;6.97;;
19645;SDS011;9971;52.446;13.452;2024-03-07T19:11:21;5.30;;;4.80;;
19645;SDS011;9971;52.446;13.452;2024-03-07T19:16:23;6.70;;;6.10;;
19645;SDS011;9971;52.446;13.452;2024-03-07T19:21:28;6.90;;;6.30;;
19645;SDS011;9971;52.446;13.452;2024-03-07T19:26:31;7.10;;;6.40;;
19645;SDS011;9971;52.446;13.452;2024-03-07T19:31:36;6.53;;;5.93;;
19645;SDS011;9971;52.446;13.452;2024-03-07T19:36:41;6.00;;;5.37;;
19645;SDS011;9971;52.446;13.452;2024-03-07T19:41:53;5.97;;;5.47;;
19645;SDS011;9971;52.446;13.452;2024-03-07T19:46:56;6.10;;;5.50;;
19645;SDS011;9971;52.446;13.452;2024-03-07T19:52:05;5.67;;;5.17;;
19645;SDS011;9971;52.446;13.452;2024-03-07T19:57:15;6.27;;;5.67;;
19645;SDS011;9971;52.446;13.452;2024-03-07T20:02:25;6.05;;;5.45;;
19645;SDS011;9971;52.446;13.452;2024-03-07T20:07:31;6.93;;;6.23;;
19645;SDS011;9971;52.446;13.452;2024-03-07T20:12:37;6.37;;;5.78;;
19645;SDS011;9971;52.446;13.452;2024-03-07T20:17:46;6.53;;;5.83;;
19645;SDS011;9971;52.446;13.452;2024-03-07T20:22:50;7.03;;;6.30;;
19645;SDS011;9971;52.446;13.452;2024-03-07T20:27:55;7.50;;;6.80;;
19645;SDS011;9971;52.446;13.452;2024-03-07T20:33:02;7.17;;;6.47;;
19645;SDS011;9971;52.446;13.452;2024-03-07T20:38:11;6.78;;;6.08;;
19645;SDS011;9971;52.446;13.452;2024-03-07T20:43:19;5.87;;;5.20;;
19645;SDS011;9971;52.446;13.452;2024-03-07T20:48:23;6.73;;;6.10;;
19645;SDS011;9971;52.446;13.452;2024-03-07T20:53:27;5.73;;;5.23;;
19645;SDS011;9971;52.446;13.452;2024-03-07T20:58:30;6.03;;;5.53;;
19645;SDS011;9971;52.446;13.452;2024-03-07T21:03:37;5.43;;;4.93;;
19645;SDS011;9971;52.446;13.452;2024-03-07T21:08:42;5.47;;;4.93;;
19645;SDS011;9971;52.446;13.452;2024-03-07T21:13:46;5.60;;;5.10;;
19645;SDS011;9971;52.446;13.452;2024-03-07T21:18:53;5.40;;;4.90;;
19645;SDS011;9971;52.446;13.452;2024-03-07T21:45:42;6.37;;;5.78;;
19645;SDS011;9971;52.446;13.452;2024-03-07T21:50:50;5.62;;;5.12;;
19645;SDS011;9971;52.446;13.452;2024-03-07T22:12:06;4.73;;;4.33;;
19645;SDS011;9971;52.446;13.452;2024-03-07T22:38:43;7.77;;;7.00;;
19645;SDS011;9971;52.446;13.452;2024-03-07T22:43:51;7.90;;;7.27;;
19645;SDS011;9971;52.446;13.452;2024-03-07T23:16:06;8.73;;;7.93;;
